KSUE/SUE METAR and TAF weather

Enter ICAO airport designator
Station Type Date Time Source
KSUE METAR 2018/12/13 07:03 UTC NOAA

KSUE 130703Z AUTO 00000KT 3/4SM BR OVC025 01/00 A2992 RMK AO2 FZRANO RVRNO


Station Type Date Time Source
KSUE Decoded METAR 2018/12/13 07:03 UTC NOAA

Sturgeon Bay, WI, United States (KSUE) 44-51N 087-25W
Dec 13, 2018 - 02:03 AM EST / 2018.12.13 0703 UTC
Wind: Calm:0
Visibility: 3/4 mile(s):0
Sky conditions: overcast
Weather: mist
Temperature: 33 F (1 C)
Dew Point: 32 F (0 C)
Relative Humidity: 93%
Pressure (altimeter): 29.92 in. Hg (1013 hPa)
ob: KSUE 130703Z AUTO 00000KT 3/4SM BR OVC025 01/00 A2992 RMK AO2 FZRANO RVRNO
cycle: 7

Station Type Date Time Source
KSUE TAF UTC NOAA

Error!


Example: see airport list